Time;durP1;ratioP1;P1;durP2;ratioP2;P2;SDS_P1;SDS_P2;PMS_P1;PMS_P2;Temp;Humidity;BMP_temperature;BMP_pressure;BME280_temperature;BME280_humidity;BME280_pressure;Samples;Min_cycle;Max_cycle;Signal;HPM_P1;HPM_P2
2022/11/17 00:01:07;;;;;;;;;;;;;;;19.92;56.75;95608.78;5134947;28;19907;-34
2022/11/17 00:03:33;;;;;;;;;;;;;;;19.90;56.41;95613.34;5117473;27;19907;-34
2022/11/17 00:06:03;;;;;;;;;;;;;;;19.88;56.58;95610.34;5139091;27;19907;-34
2022/11/17 00:08:28;;;;;;;;;;;;;;;19.90;56.34;95613.34;5120632;27;19911;-34
2022/11/17 00:10:53;;;;;;;;;;;;;;;19.85;56.23;95603.09;5138904;27;20381;-33
2022/11/17 00:16:03;;;;;;;;;;;;;;;19.81;56.01;95608.09;5138713;27;20313;-33
2022/11/17 00:21:18;;;;;;;;;;;;;;;19.85;56.06;95600.34;5138577;27;19952;-33
2022/11/17 00:23:46;;;;;;;;;;;;;;;19.83;56.29;95605.59;5138324;27;19988;-35
2022/11/17 00:26:12;;;;;;;;;;;;;;;19.83;56.05;95600.84;5138490;27;20298;-33
2022/11/17 00:28:38;;;;;;;;;;;;;;;19.86;55.67;95601.84;5138346;27;20492;-33
2022/11/17 00:34:05;;;;;;;;;;;;;;;19.82;55.82;95604.09;5138400;27;19959;-33
2022/11/17 00:36:36;;;;;;;;;;;;;;;19.79;55.84;95592.09;5148874;27;20311;-33
2022/11/17 00:39:02;;;;;;;;;;;;;;;19.83;55.73;95603.59;5158939;27;20005;-34
2022/11/17 00:41:27;;;;;;;;;;;;;;;19.83;55.60;95597.34;5158839;27;20005;-33
2022/11/17 00:43:53;;;;;;;;;;;;;;;19.81;55.70;95603.34;5158920;27;19952;-33
2022/11/17 00:46:18;;;;;;;;;;;;;;;19.83;55.52;95605.59;5158848;27;19910;-34
2022/11/17 00:48:43;;;;;;;;;;;;;;;19.77;55.65;95602.88;5158730;27;19906;-34
2022/11/17 00:51:08;;;;;;;;;;;;;;;19.80;55.54;95592.84;5158741;27;20362;-34
2022/11/17 00:53:34;;;;;;;;;;;;;;;19.80;55.33;95603.84;5158705;27;19911;-34
2022/11/17 00:55:59;;;;;;;;;;;;;;;19.77;55.35;95602.13;5158592;27;20290;-34
2022/11/17 00:58:24;;;;;;;;;;;;;;;19.75;55.18;95605.38;5158617;27;19914;-34
2022/11/17 01:00:50;;;;;;;;;;;;;;;19.73;55.21;95607.91;5158515;27;19993;-34
2022/11/17 01:03:15;;;;;;;;;;;;;;;19.71;55.42;95621.41;5158407;27;19938;-33
2022/11/17 01:05:40;;;;;;;;;;;;;;;19.74;55.15;95614.91;5158491;27;19915;-34
2022/11/17 01:08:06;;;;;;;;;;;;;;;19.75;55.05;95612.88;5158390;27;20048;-34
2022/11/17 01:10:33;;;;;;;;;;;;;;;19.78;54.99;95617.38;5158349;27;20047;-33
2022/11/17 01:12:58;;;;;;;;;;;;;;;19.72;54.89;95623.66;5158215;27;19918;-33
2022/11/17 01:15:23;;;;;;;;;;;;;;;19.73;54.87;95618.91;5157723;27;19914;-34
2022/11/17 01:17:49;;;;;;;;;;;;;;;19.76;54.55;95628.91;5158465;27;20417;-36
2022/11/17 01:20:14;;;;;;;;;;;;;;;19.71;54.47;95633.16;5158297;27;19914;-34
2022/11/17 01:22:39;;;;;;;;;;;;;;;19.66;54.61;95631.16;5147080;27;20343;-33
2022/11/17 01:25:05;;;;;;;;;;;;;;;19.65;54.36;95645.44;5151941;27;19957;-33
2022/11/17 01:27:30;;;;;;;;;;;;;;;19.65;54.65;95648.19;5158081;27;19907;-33
2022/11/17 01:29:55;;;;;;;;;;;;;;;19.67;54.49;95657.41;5158032;27;20388;-34
2022/11/17 01:32:21;;;;;;;;;;;;;;;19.69;54.46;95652.16;5158059;27;19911;-34
2022/11/17 01:34:46;;;;;;;;;;;;;;;19.63;54.61;95643.19;5157572;27;19915;-34
2022/11/17 01:37:20;;;;;;;;;;;;;;;19.67;54.08;95653.91;5157922;27;20364;-33
2022/11/17 01:39:46;;;;;;;;;;;;;;;19.69;54.03;95649.41;5151974;27;19918;-33
2022/11/17 01:42:13;;;;;;;;;;;;;;;19.63;54.00;95651.44;5137097;27;19904;-33
2022/11/17 01:44:58;;;;;;;;;;;;;;;19.67;54.07;95659.41;5141246;27;19918;-35
2022/11/17 01:47:42;;;;;;;;;;;;;;;19.61;54.20;95655.94;5137183;27;20256;-34
2022/11/17 01:50:26;;;;;;;;;;;;;;;19.64;54.11;95661.19;5136904;27;20396;-33
2022/11/17 01:52:54;;;;;;;;;;;;;;;19.66;53.84;95655.16;5149867;27;20001;-34
2022/11/17 01:55:49;;;;;;;;;;;;;;;19.61;54.08;95655.94;5136701;27;19912;-33
2022/11/17 01:58:35;;;;;;;;;;;;;;;19.64;53.75;95652.94;5136534;27;19907;-35
2022/11/17 02:01:01;;;;;;;;;;;;;;;19.64;53.74;95652.19;5136945;27;19911;-33
2022/11/17 02:03:53;;;;;;;;;;;;;;;19.60;53.84;95652.44;5136939;27;19907;-34
2022/11/17 02:06:34;;;;;;;;;;;;;;;19.58;53.89;95648.69;5135995;27;19917;-33
2022/11/17 02:09:01;;;;;;;;;;;;;;;19.55;53.76;95644.94;5136608;27;20013;-34
2022/11/17 02:11:28;;;;;;;;;;;;;;;19.58;54.00;95634.94;5136689;27;20363;-33
2022/11/17 02:13:54;;;;;;;;;;;;;;;19.57;53.77;95644.44;5136178;27;19912;-33
2022/11/17 02:16:20;;;;;;;;;;;;;;;19.57;53.70;95642.44;5136499;27;19907;-35
2022/11/17 02:18:45;;;;;;;;;;;;;;;19.59;53.18;95637.19;5136325;27;19907;-33
2022/11/17 02:21:31;;;;;;;;;;;;;;;19.54;53.17;95646.19;5117969;27;19907;-33
2022/11/17 02:23:56;;;;;;;;;;;;;;;19.59;53.27;95645.44;5083909;27;19951;-34
2022/11/17 02:26:24;;;;;;;;;;;;;;;19.53;53.29;95646.72;5135148;27;19987;-34
2022/11/17 02:28:50;;;;;;;;;;;;;;;19.51;53.23;95649.22;5136078;27;20385;-33
2022/11/17 02:31:21;;;;;;;;;;;;;;;19.52;52.88;95648.72;5136003;27;19908;-33
2022/11/17 02:33:58;;;;;;;;;;;;;;;19.43;53.23;95648.94;5136192;27;19911;-34
2022/11/17 02:36:24;;;;;;;;;;;;;;;19.51;53.12;95649.22;5135838;27;19999;-33
2022/11/17 02:38:55;;;;;;;;;;;;;;;19.50;53.29;95653.22;5136126;27;19907;-34
2022/11/17 02:41:24;;;;;;;;;;;;;;;19.52;52.96;95656.22;5136068;27;19914;-35
2022/11/17 02:44:03;;;;;;;;;;;;;;;19.52;53.07;95659.72;5135948;27;19913;-33
2022/11/17 02:46:30;;;;;;;;;;;;;;;19.53;53.05;95644.72;5135894;27;19911;-33
2022/11/17 02:49:06;;;;;;;;;;;;;;;19.51;53.07;95646.47;5117264;27;19911;-34
2022/11/17 02:51:33;;;;;;;;;;;;;;;19.42;53.46;95644.69;5135740;27;19930;-33
2022/11/17 02:54:00;;;;;;;;;;;;;;;19.46;53.13;95645.19;5135537;27;19919;-33
2022/11/17 02:56:25;;;;;;;;;;;;;;;19.45;53.11;95640.94;5135623;27;19907;-34
2022/11/17 02:58:53;;;;;;;;;;;;;;;19.49;52.88;95654.47;5135616;27;20462;-34
2022/11/17 03:01:37;;;;;;;;;;;;;;;19.44;52.79;95655.94;5135393;27;19956;-34
2022/11/17 03:04:12;;;;;;;;;;;;;;;19.50;52.94;95644.97;5135428;27;19949;-33
2022/11/17 03:06:43;;;;;;;;;;;;;;;19.50;52.86;95651.22;5135597;27;19907;-33
2022/11/17 03:09:17;;;;;;;;;;;;;;;19.54;52.54;95657.19;5135208;27;20009;-33
2022/11/17 03:11:49;;;;;;;;;;;;;;;19.46;52.64;95647.94;5135134;27;19911;-33
2022/11/17 03:14:29;;;;;;;;;;;;;;;19.43;52.75;95645.44;5135317;27;20371;-33
2022/11/17 03:16:57;;;;;;;;;;;;;;;19.38;52.71;95647.72;5135328;27;19952;-33
2022/11/17 03:19:28;;;;;;;;;;;;;;;19.46;52.55;95645.19;5135226;27;19976;-35
2022/11/17 03:22:03;;;;;;;;;;;;;;;19.42;52.68;95632.94;5135220;27;19914;-33
2022/11/17 03:24:54;;;;;;;;;;;;;;;19.36;52.64;95647.47;5134961;27;19973;-34
2022/11/17 03:27:19;;;;;;;;;;;;;;;19.40;52.65;95652.72;5130367;27;19907;-35
2022/11/17 03:29:48;;;;;;;;;;;;;;;19.38;52.59;95658.72;5134888;27;20412;-34
2022/11/17 03:32:14;;;;;;;;;;;;;;;19.34;52.41;95646.47;5135204;27;19921;-34
2022/11/17 03:34:43;;;;;;;;;;;;;;;19.32;52.69;95638.72;5135000;27;20327;-33
2022/11/17 03:37:10;;;;;;;;;;;;;;;19.40;52.41;95636.22;5116380;27;20092;-34
2022/11/17 03:39:37;;;;;;;;;;;;;;;19.34;52.48;95638.22;5135030;27;19911;-33
2022/11/17 03:42:11;;;;;;;;;;;;;;;19.34;52.12;95638.22;5135109;27;19907;-33
2022/11/17 03:44:38;;;;;;;;;;;;;;;19.32;52.34;95641.47;5137637;27;19945;-33
2022/11/17 03:47:04;;;;;;;;;;;;;;;19.37;52.30;95632.47;5135012;28;19956;-33
2022/11/17 03:49:52;;;;;;;;;;;;;;;19.35;52.42;95632.22;5152219;27;19914;-35
2022/11/17 03:52:18;;;;;;;;;;;;;;;19.25;52.59;95633.75;5141904;27;20373;-34
2022/11/17 03:54:43;;;;;;;;;;;;;;;19.29;52.51;95638.97;5155387;27;20010;-33
2022/11/17 03:57:14;;;;;;;;;;;;;;;19.29;52.45;95644.47;5155638;27;19911;-33
2022/11/17 03:59:45;;;;;;;;;;;;;;;19.31;52.39;95644.72;5155351;27;20350;-33
2022/11/17 04:02:16;;;;;;;;;;;;;;;19.32;52.47;95646.97;5155442;27;19995;-33
2022/11/17 04:07:25;;;;;;;;;;;;;;;19.30;52.37;95645.97;5155464;27;19914;-33
2022/11/17 04:09:50;;;;;;;;;;;;;;;19.28;52.45;95648.50;5155308;27;19907;-33
2022/11/17 04:17:43;;;;;;;;;;;;;;;19.25;52.69;95660.50;5155172;27;19930;-34
2022/11/17 04:20:09;;;;;;;;;;;;;;;19.20;52.78;95661.25;5155325;27;20343;-33
2022/11/17 04:22:34;;;;;;;;;;;;;;;19.26;52.51;95671.00;5155355;27;19907;-33
2022/11/17 04:24:59;;;;;;;;;;;;;;;19.20;52.70;95664.75;5155222;27;20011;-34
2022/11/17 04:30:09;;;;;;;;;;;;;;;19.28;52.61;95667.75;5155254;27;19917;-34
2022/11/17 04:32:34;;;;;;;;;;;;;;;19.22;52.65;95673.25;5155102;27;19911;-34
2022/11/17 04:34:59;;;;;;;;;;;;;;;19.25;52.54;95668.75;5155097;27;19915;-33
2022/11/17 04:37:25;;;;;;;;;;;;;;;19.22;52.53;95658.75;5155406;27;20005;-33
2022/11/17 04:39:50;;;;;;;;;;;;;;;19.21;52.50;95660.75;5155126;27;19914;-33
2022/11/17 04:42:15;;;;;;;;;;;;;;;19.21;52.50;95662.75;5136735;27;19907;-33
2022/11/17 04:44:41;;;;;;;;;;;;;;;19.20;52.50;95667.50;5154872;27;19957;-33
2022/11/17 04:47:07;;;;;;;;;;;;;;;19.23;52.53;95665.75;5155150;27;20388;-33
2022/11/17 04:49:32;;;;;;;;;;;;;;;19.21;52.47;95662.75;5155811;27;19907;-33
2022/11/17 04:51:57;;;;;;;;;;;;;;;19.23;52.55;95665.75;5158746;27;19910;-33
2022/11/17 04:54:23;;;;;;;;;;;;;;;19.16;52.54;95655.25;5158729;27;19911;-34
2022/11/17 04:56:49;;;;;;;;;;;;;;;19.14;52.76;95660.50;5158701;27;20389;-34
2022/11/17 04:59:14;;;;;;;;;;;;;;;19.21;52.34;95665.50;5158582;27;19907;-34
2022/11/17 05:01:39;;;;;;;;;;;;;;;19.22;52.09;95669.75;5158469;27;20327;-34
2022/11/17 05:04:06;;;;;;;;;;;;;;;19.16;52.36;95677.25;5158738;27;19911;-33
2022/11/17 05:06:33;;;;;;;;;;;;;;;19.18;52.34;95675.47;5158318;27;19907;-34
2022/11/17 05:08:59;;;;;;;;;;;;;;;19.12;52.58;95676.75;5158519;27;19906;-33
2022/11/17 05:14:10;;;;;;;;;;;;;;;19.13;52.50;95678.25;5158382;27;20075;-33
2022/11/17 05:19:21;;;;;;;;;;;;;;;19.13;52.65;95672.75;5158417;27;20278;-34
2022/11/17 05:21:46;;;;;;;;;;;;;;;19.09;52.71;95672.25;5158069;27;20426;-33
2022/11/17 05:24:13;;;;;;;;;;;;;;;19.07;52.62;95674.75;5157961;27;19950;-33
2022/11/17 05:26:38;;;;;;;;;;;;;;;19.08;52.58;95677.00;5158400;27;19958;-34
2022/11/17 05:29:05;;;;;;;;;;;;;;;19.10;52.50;95671.00;5158131;27;19907;-33
2022/11/17 05:31:30;;;;;;;;;;;;;;;19.11;52.27;95667.00;5158127;27;19918;-34
2022/11/17 05:33:56;;;;;;;;;;;;;;;19.10;52.49;95668.25;5157937;27;19911;-33
2022/11/17 05:36:22;;;;;;;;;;;;;;;19.10;52.44;95662.75;5139449;27;19915;-34
2022/11/17 05:38:48;;;;;;;;;;;;;;;19.14;52.45;95668.75;5144685;27;20301;-34
2022/11/17 05:41:14;;;;;;;;;;;;;;;19.09;52.45;95673.00;5137127;27;19998;-33
2022/11/17 05:43:39;;;;;;;;;;;;;;;19.03;52.57;95675.00;5136873;27;20287;-33
2022/11/17 05:46:04;;;;;;;;;;;;;;;19.09;52.61;95675.00;5137236;27;19914;-33
2022/11/17 05:48:30;;;;;;;;;;;;;;;19.11;52.50;95681.50;5118526;27;19914;-33
2022/11/17 05:50:55;;;;;;;;;;;;;;;19.12;52.41;95683.00;5136852;27;19915;-33
2022/11/17 05:53:22;;;;;;;;;;;;;;;19.11;52.57;95691.75;5136992;27;19912;-33
2022/11/17 05:55:47;;;;;;;;;;;;;;;19.10;52.47;95692.97;5136940;27;19907;-33
2022/11/17 05:58:16;;;;;;;;;;;;;;;19.05;52.63;95699.97;5146880;27;19911;-35
2022/11/17 06:00:42;;;;;;;;;;;;;;;19.11;52.56;95694.47;5156813;27;19906;-33
2022/11/17 06:03:12;;;;;;;;;;;;;;;19.06;52.63;95684.97;5156925;27;19906;-34
2022/11/17 06:05:37;;;;;;;;;;;;;;;19.09;52.54;95694.22;5157693;27;19907;-34
2022/11/17 06:08:02;;;;;;;;;;;;;;;19.02;52.59;95690.75;5157147;27;19960;-33
2022/11/17 06:10:28;;;;;;;;;;;;;;;19.04;52.59;95692.25;5157285;27;20001;-34
2022/11/17 06:12:53;;;;;;;;;;;;;;;19.01;52.48;95694.75;5157296;27;19907;-35
2022/11/17 06:15:18;;;;;;;;;;;;;;;19.04;52.50;95692.25;5157050;27;19953;-33
2022/11/17 06:17:49;;;;;;;;;;;;;;;19.00;52.63;95701.50;5157277;27;19989;-33
2022/11/17 06:20:15;;;;;;;;;;;;;;;19.04;52.50;95703.97;5157062;27;19907;-33
2022/11/17 06:22:40;;;;;;;;;;;;;;;19.08;52.51;95709.97;5156825;27;19959;-36
2022/11/17 06:25:07;;;;;;;;;;;;;;;19.03;52.64;95713.47;5156974;27;20313;-33
2022/11/17 06:27:32;;;;;;;;;;;;;;;19.06;52.61;95714.47;5156867;27;19913;-33
2022/11/17 06:30:02;;;;;;;;;;;;;;;19.05;52.48;95713.72;5156849;27;19907;-33
2022/11/17 06:32:28;;;;;;;;;;;;;;;18.98;52.68;95717.72;5156797;27;19956;-33
2022/11/17 06:34:53;;;;;;;;;;;;;;;18.95;53.02;95732.44;5156848;27;20317;-34
2022/11/17 06:37:19;;;;;;;;;;;;;;;19.04;52.75;95727.97;5156681;27;20381;-33
2022/11/17 06:39:44;;;;;;;;;;;;;;;19.01;52.78;95711.22;5156502;27;20380;-33
2022/11/17 06:42:10;;;;;;;;;;;;;;;19.04;52.79;95719.72;5156732;27;19903;-33
2022/11/17 06:44:36;;;;;;;;;;;;;;;19.00;52.79;95715.22;5156534;27;19954;-35
2022/11/17 06:47:01;;;;;;;;;;;;;;;19.04;52.77;95711.50;5156568;27;19914;-33
2022/11/17 06:49:26;;;;;;;;;;;;;;;18.99;52.76;95716.47;5156576;27;19913;-34
2022/11/17 06:51:52;;;;;;;;;;;;;;;18.96;52.73;95714.72;5153299;27;19918;-33
2022/11/17 06:54:17;;;;;;;;;;;;;;;19.05;52.62;95716.47;5143590;27;20428;-34
2022/11/17 06:56:43;;;;;;;;;;;;;;;19.05;52.66;95718.47;5154367;27;19911;-33
2022/11/17 06:59:08;;;;;;;;;;;;;;;19.00;52.42;95731.72;5137379;27;19911;-33
2022/11/17 07:01:33;;;;;;;;;;;;;;;19.01;52.68;95733.22;5133474;27;19958;-34
2022/11/17 07:03:59;;;;;;;;;;;;;;;19.01;52.82;95729.72;5133500;27;19917;-33
2022/11/17 07:06:24;;;;;;;;;;;;;;;18.99;52.59;95735.72;5133346;27;19963;-35
2022/11/17 07:08:49;;;;;;;;;;;;;;;18.95;52.79;95737.19;5133501;27;19944;-34
2022/11/17 07:11:15;;;;;;;;;;;;;;;18.97;52.86;95740.94;5149642;27;19942;-33
2022/11/17 07:13:41;;;;;;;;;;;;;;;18.95;52.90;95734.44;5146492;27;20407;-33
2022/11/17 07:16:11;;;;;;;;;;;;;;;19.00;52.94;95736.47;5133068;27;19918;-33
2022/11/17 07:18:37;;;;;;;;;;;;;;;18.96;52.82;95742.19;5133284;27;19957;-34
2022/11/17 07:21:03;;;;;;;;;;;;;;;18.96;53.09;95741.44;5133215;27;19994;-34
2022/11/17 07:23:33;;;;;;;;;;;;;;;18.96;52.91;95742.19;5132860;27;19923;-35
2022/11/17 07:25:59;;;;;;;;;;;;;;;18.96;53.00;95747.69;5133193;27;19911;-34
2022/11/17 07:28:24;;;;;;;;;;;;;;;18.97;53.06;95749.19;5132824;27;19911;-33
2022/11/17 07:30:50;;;;;;;;;;;;;;;19.01;53.08;95741.47;5131855;27;19943;-34
2022/11/17 07:33:15;;;;;;;;;;;;;;;18.98;53.47;95736.94;5133165;27;19918;-33
2022/11/17 07:35:40;;;;;;;;;;;;;;;18.97;53.39;95738.19;5133105;27;20387;-35
2022/11/17 07:38:05;;;;;;;;;;;;;;;18.92;53.86;95743.69;5145081;27;19922;-34
2022/11/17 07:40:31;;;;;;;;;;;;;;;18.99;53.42;95749.44;5149815;27;19907;-33
2022/11/17 07:42:56;;;;;;;;;;;;;;;18.94;53.46;95733.69;5153572;27;19910;-34
2022/11/17 07:45:22;;;;;;;;;;;;;;;18.95;53.50;95737.94;5153696;27;19975;-33
2022/11/17 07:47:55;;;;;;;;;;;;;;;18.92;53.61;95730.69;5148875;27;19915;-34
2022/11/17 07:50:20;;;;;;;;;;;;;;;18.95;53.85;95734.44;5152918;27;19918;-34
2022/11/17 07:52:47;;;;;;;;;;;;;;;18.94;53.90;95732.94;5152120;27;19915;-35
2022/11/17 07:55:12;;;;;;;;;;;;;;;18.95;53.99;95726.94;5153046;27;19944;-34
2022/11/17 07:57:37;;;;;;;;;;;;;;;18.95;53.84;95729.69;5153996;27;19907;-33
2022/11/17 08:00:03;;;;;;;;;;;;;;;18.94;54.04;95732.94;5155439;27;19911;-33
2022/11/17 08:02:28;;;;;;;;;;;;;;;18.90;54.07;95733.22;5155610;27;19911;-33
2022/11/17 08:04:53;;;;;;;;;;;;;;;18.94;54.15;95741.94;5155260;27;20002;-36
2022/11/17 08:07:19;;;;;;;;;;;;;;;18.95;54.22;95739.94;5155477;27;20274;-34
2022/11/17 08:09:44;;;;;;;;;;;;;;;18.96;54.14;95733.94;5155169;27;19907;-34
2022/11/17 08:12:09;;;;;;;;;;;;;;;18.99;54.07;95740.44;5155004;27;19965;-33
2022/11/17 08:14:35;;;;;;;;;;;;;;;18.92;54.20;95747.19;5153918;27;19915;-33
2022/11/17 08:17:00;;;;;;;;;;;;;;;18.95;54.46;95754.44;5154213;27;19964;-35
2022/11/17 08:19:26;;;;;;;;;;;;;;;18.98;54.33;95747.94;5155056;27;19914;-33
2022/11/17 08:21:51;;;;;;;;;;;;;;;18.94;54.46;95739.19;5155121;27;20005;-33
2022/11/17 08:24:16;;;;;;;;;;;;;;;18.97;54.37;95735.44;5155438;27;19915;-33
2022/11/17 08:26:42;;;;;;;;;;;;;;;18.93;54.25;95732.19;5136500;27;19914;-33
2022/11/17 08:29:07;;;;;;;;;;;;;;;19.00;54.27;95741.94;5137846;27;20363;-34
2022/11/17 08:31:32;;;;;;;;;;;;;;;18.97;54.42;95737.44;5138376;27;19914;-34
2022/11/17 08:33:58;;;;;;;;;;;;;;;18.90;54.30;95730.47;5138471;27;19968;-34
2022/11/17 08:36:23;;;;;;;;;;;;;;;18.89;54.46;95731.72;5138401;27;19915;-33
2022/11/17 08:38:48;;;;;;;;;;;;;;;18.98;54.24;95720.47;5138243;27;20013;-34
2022/11/17 08:41:13;;;;;;;;;;;;;;;17.01;60.70;95722.03;5138197;27;19913;-32
2022/11/17 08:43:39;;;;;;;;;;;;;;;18.10;57.24;95718.97;5137909;27;19929;-35
2022/11/17 08:46:04;;;;;;;;;;;;;;;18.53;55.90;95699.66;5138238;27;19907;-35
2022/11/17 08:48:30;;;;;;;;;;;;;;;18.78;55.21;95717.97;5143565;27;19911;-34
2022/11/17 08:50:56;;;;;;;;;;;;;;;18.86;54.71;95715.47;5158078;27;19960;-34
2022/11/17 08:53:22;;;;;;;;;;;;;;;18.97;54.27;95710.72;5158881;27;19911;-33
2022/11/17 08:55:47;;;;;;;;;;;;;;;18.97;54.38;95715.47;5158891;27;20259;-33
2022/11/17 08:58:13;;;;;;;;;;;;;;;19.01;54.19;95722.22;5157902;27;19907;-33
2022/11/17 09:00:38;;;;;;;;;;;;;;;19.05;54.09;95712.97;5158854;27;19918;-33
2022/11/17 09:03:13;;;;;;;;;;;;;;;19.04;54.12;95716.97;5158480;27;19914;-35
2022/11/17 09:05:39;;;;;;;;;;;;;;;19.07;54.02;95711.22;5158569;27;19935;-33
2022/11/17 09:08:05;;;;;;;;;;;;;;;19.06;54.02;95731.69;5158517;27;19907;-34
2022/11/17 09:10:30;;;;;;;;;;;;;;;19.07;54.07;95741.44;5139916;27;19921;-34
2022/11/17 09:12:56;;;;;;;;;;;;;;;19.02;54.26;95745.72;5157942;27;19914;-34
2022/11/17 09:15:21;;;;;;;;;;;;;;;19.03;54.18;95729.97;5158027;27;19915;-34
2022/11/17 09:17:47;;;;;;;;;;;;;;;19.06;54.25;95728.19;5158328;27;19914;-34
2022/11/17 09:20:16;;;;;;;;;;;;;;;19.03;54.15;95727.22;5158327;27;19990;-34
2022/11/17 09:22:41;;;;;;;;;;;;;;;19.06;54.05;95739.19;5157909;27;19907;-34
2022/11/17 09:25:07;;;;;;;;;;;;;;;19.08;54.18;95728.47;5158202;27;19913;-35
2022/11/17 09:27:32;;;;;;;;;;;;;;;19.06;54.10;95728.19;5158087;27;19914;-34
2022/11/17 09:29:57;;;;;;;;;;;;;;;19.01;54.22;95735.22;5158354;27;19906;-34
2022/11/17 09:32:23;;;;;;;;;;;;;;;19.01;54.19;95744.22;5158377;27;19908;-33
2022/11/17 09:34:48;;;;;;;;;;;;;;;19.06;54.07;95750.19;5157595;27;20005;-35
2022/11/17 09:37:13;;;;;;;;;;;;;;;19.03;54.20;95743.72;5157680;27;20302;-33
2022/11/17 09:39:40;;;;;;;;;;;;;;;19.01;54.22;95755.19;5157792;27;20369;-34
2022/11/17 09:42:05;;;;;;;;;;;;;;;19.08;54.19;95759.44;5157930;27;20312;-33
2022/11/17 09:44:30;;;;;;;;;;;;;;;19.10;53.98;95761.69;5151994;27;19959;-33
2022/11/17 09:47:02;;;;;;;;;;;;;;;19.01;54.13;95757.94;5136841;27;19907;-35
2022/11/17 09:49:36;;;;;;;;;;;;;;;19.08;54.08;95761.44;5137096;27;19964;-34
2022/11/17 09:52:06;;;;;;;;;;;;;;;19.06;54.17;95761.19;5155867;27;19907;-34
2022/11/17 09:54:37;;;;;;;;;;;;;;;18.98;54.28;95778.16;5157470;27;19986;-33
2022/11/17 09:57:03;;;;;;;;;;;;;;;18.94;54.64;95771.41;5156121;27;19914;-34
2022/11/17 09:59:31;;;;;;;;;;;;;;;18.93;54.62;95764.41;5155407;27;19915;-34
2022/11/17 10:01:56;;;;;;;;;;;;;;;18.99;54.33;95771.44;5157335;27;20043;-34
2022/11/17 10:04:23;;;;;;;;;;;;;;;19.03;54.33;95773.94;5157596;27;19954;-34
2022/11/17 10:06:49;;;;;;;;;;;;;;;19.04;54.18;95767.16;5157440;27;19911;-34
2022/11/17 10:09:18;;;;;;;;;;;;;;;19.08;54.18;95766.94;5157262;27;20358;-34
2022/11/17 10:11:44;;;;;;;;;;;;;;;19.01;54.39;95749.69;5157406;27;19907;-33
2022/11/17 10:14:15;;;;;;;;;;;;;;;19.01;54.35;95748.94;5157186;27;20283;-34
2022/11/17 10:16:51;;;;;;;;;;;;;;;19.01;54.52;95755.19;5157156;27;19907;-34
2022/11/17 10:19:16;;;;;;;;;;;;;;;18.97;54.51;95751.19;5157421;27;19907;-33
2022/11/17 10:21:42;;;;;;;;;;;;;;;19.05;54.17;95749.44;5156969;27;20357;-33
2022/11/17 10:24:07;;;;;;;;;;;;;;;19.07;54.21;95749.69;5156889;27;19915;-34
2022/11/17 10:26:46;;;;;;;;;;;;;;;19.02;54.29;95742.97;5156941;27;19939;-34
2022/11/17 10:29:13;;;;;;;;;;;;;;;19.08;54.46;95747.69;5156811;27;19942;-33
2022/11/17 10:31:42;;;;;;;;;;;;;;;19.12;54.03;95756.44;5157070;27;19972;-34
2022/11/17 10:34:09;;;;;;;;;;;;;;;19.14;54.08;95754.72;5157033;27;19918;-33
2022/11/17 10:36:35;;;;;;;;;;;;;;;19.12;54.10;95743.47;5156783;27;19910;-34
2022/11/17 10:39:00;;;;;;;;;;;;;;;19.11;54.17;95752.94;5156833;27;19914;-34
2022/11/17 10:41:44;;;;;;;;;;;;;;;19.12;54.14;95745.47;5156603;27;19968;-34
2022/11/17 10:44:09;;;;;;;;;;;;;;;19.16;54.06;95740.47;5156586;27;19918;-34
2022/11/17 10:46:51;;;;;;;;;;;;;;;19.11;54.23;95752.94;5156407;27;19911;-34
2022/11/17 10:49:24;;;;;;;;;;;;;;;18.99;54.78;95757.69;5156421;27;20294;-35
2022/11/17 10:52:03;;;;;;;;;;;;;;;18.98;54.81;95756.19;5156499;27;19959;-35
2022/11/17 10:54:28;;;;;;;;;;;;;;;18.88;55.47;95751.44;5156708;27;20235;-34
2022/11/17 10:56:55;;;;;;;;;;;;;;;18.99;55.05;95743.94;5156216;27;19968;-34
2022/11/17 10:59:40;;;;;;;;;;;;;;;19.03;54.76;95740.97;5156375;27;19952;-33
2022/11/17 11:02:26;;;;;;;;;;;;;;;18.92;55.15;95738.19;5156406;27;19907;-35
2022/11/17 11:05:20;;;;;;;;;;;;;;;18.59;56.49;95733.38;5156002;27;19906;-34
2022/11/17 11:07:45;;;;;;;;;;;;;;;18.29;56.38;95739.28;5152346;27;19928;-34
2022/11/17 11:10:15;;;;;;;;;;;;;;;18.29;56.88;95722.81;5156233;27;19907;-33
2022/11/17 11:12:46;;;;;;;;;;;;;;;18.58;56.15;95720.91;5156091;27;20006;-34
2022/11/17 11:15:19;;;;;;;;;;;;;;;18.60;56.12;95721.91;5137291;27;19911;-33
2022/11/17 11:17:45;;;;;;;;;;;;;;;18.52;56.50;95726.38;5156307;27;19907;-34
2022/11/17 11:20:14;;;;;;;;;;;;;;;18.52;56.28;95715.38;5156416;27;19914;-34
2022/11/17 11:23:01;;;;;;;;;;;;;;;18.69;56.04;95709.19;5137457;27;20022;-34
2022/11/17 11:25:45;;;;;;;;;;;;;;;18.47;57.30;95715.34;5155999;27;20401;-34
2022/11/17 11:28:28;;;;;;;;;;;;;;;18.79;55.86;95716.69;5155935;27;19949;-33
2022/11/17 11:31:20;;;;;;;;;;;;;;;18.56;57.49;95726.09;5155848;27;19907;-33
2022/11/17 11:34:05;;;;;;;;;;;;;;;18.58;57.07;95720.91;5108959;27;19919;-34
2022/11/17 11:36:54;;;;;;;;;;;;;;;18.81;56.45;95714.19;5135247;27;20270;-33
2022/11/17 11:39:19;;;;;;;;;;;;;;;18.84;57.09;95701.47;5134849;27;19915;-33
2022/11/17 11:41:45;;;;;;;;;;;;;;;18.45;57.82;95699.38;5134411;27;19908;-34
2022/11/17 11:44:13;;;;;;;;;;;;;;;18.60;57.54;95704.69;5133116;27;19918;-34
2022/11/17 11:46:50;;;;;;;;;;;;;;;18.85;56.47;95700.97;5132421;27;19919;-35
2022/11/17 11:49:34;;;;;;;;;;;;;;;18.67;58.07;95704.19;5132871;27;19914;-35
2022/11/17 11:52:02;;;;;;;;;;;;;;;18.58;59.06;95712.66;5142882;27;20283;-33
2022/11/17 11:54:46;;;;;;;;;;;;;;;18.60;57.78;95705.44;5153485;27;19922;-34
2022/11/17 11:57:12;;;;;;;;;;;;;;;18.85;56.61;95708.47;5151485;27;19967;-34
2022/11/17 12:00:01;;;;;;;;;;;;;;;18.82;56.54;95699.22;5155863;27;20308;-33
2022/11/17 12:02:35;;;;;;;;;;;;;;;18.79;57.99;95702.22;5137865;27;20375;-34
2022/11/17 12:05:00;;;;;;;;;;;;;;;18.59;57.94;95697.69;5159285;27;19907;-35
2022/11/17 12:07:41;;;;;;;;;;;;;;;18.69;57.68;95695.44;5159715;27;19956;-33
2022/11/17 12:10:12;;;;;;;;;;;;;;;18.61;59.13;95695.19;5159260;27;19911;-33
2022/11/17 12:12:38;;;;;;;;;;;;;;;18.91;58.61;95696.25;5159189;27;19907;-34
2022/11/17 12:15:28;;;;;;;;;;;;;;;18.86;57.20;95691.47;5158599;27;19911;-33
2022/11/17 12:17:58;;;;;;;;;;;;;;;18.92;57.09;95680.47;5159478;27;20005;-35
2022/11/17 12:20:30;;;;;;;;;;;;;;;19.02;56.82;95685.25;5159447;27;19958;-33
2022/11/17 12:23:15;;;;;;;;;;;;;;;18.93;56.98;95677.25;5140477;27;19938;-34
2022/11/17 12:25:45;;;;;;;;;;;;;;;18.68;59.18;95689.19;5158092;27;19911;-33
2022/11/17 12:28:26;;;;;;;;;;;;;;;18.59;58.37;95692.19;5140519;27;20362;-34
2022/11/17 12:30:52;;;;;;;;;;;;;;;18.58;57.98;95688.69;5159264;27;19907;-33
2022/11/17 12:33:18;;;;;;;;;;;;;;;18.54;58.19;95695.66;5159191;27;19907;-33
2022/11/17 12:36:06;;;;;;;;;;;;;;;18.63;58.03;95690.72;5159058;27;19971;-34
2022/11/17 12:38:31;;;;;;;;;;;;;;;18.30;58.61;95699.56;5158865;27;19930;-34
2022/11/17 12:40:57;;;;;;;;;;;;;;;18.35;58.64;95689.88;5159327;27;20350;-33
2022/11/17 12:43:23;;;;;;;;;;;;;;;18.67;57.66;95687.69;5158972;27;19907;-33
2022/11/17 12:45:51;;;;;;;;;;;;;;;18.87;56.81;95684.75;5158925;27;19911;-35
2022/11/17 12:48:28;;;;;;;;;;;;;;;18.76;56.97;95684.75;5139984;27;19911;-34
2022/11/17 12:50:53;;;;;;;;;;;;;;;18.69;57.32;95696.19;5156933;27;19911;-34
2022/11/17 12:53:33;;;;;;;;;;;;;;;18.81;56.88;95691.47;5156841;27;19918;-34
2022/11/17 12:56:04;;;;;;;;;;;;;;;18.63;57.40;95696.22;5156936;27;19911;-34
2022/11/17 12:58:36;;;;;;;;;;;;;;;18.98;56.35;95687.50;5156400;27;19907;-35
2022/11/17 13:01:14;;;;;;;;;;;;;;;19.06;55.99;95701.47;5156837;27;19907;-37
2022/11/17 13:03:44;;;;;;;;;;;;;;;19.05;56.01;95696.47;5156607;27;19911;-35
2022/11/17 13:06:11;;;;;;;;;;;;;;;18.79;56.83;95708.44;5123673;27;20275;-32
2022/11/17 13:08:37;;;;;;;;;;;;;;;18.88;56.61;95712.97;5135811;27;19908;-34
2022/11/17 13:11:04;;;;;;;;;;;;;;;18.84;56.74;95696.72;5134713;27;19912;-33
2022/11/17 13:13:29;;;;;;;;;;;;;;;19.02;56.15;95693.50;5135493;27;19973;-35
2022/11/17 13:15:58;;;;;;;;;;;;;;;18.91;56.25;95679.75;5135650;27;19942;-35
2022/11/17 13:18:26;;;;;;;;;;;;;;;18.84;56.85;95693.22;5135750;27;19914;-34
2022/11/17 13:20:52;;;;;;;;;;;;;;;18.84;56.82;95693.97;5135721;27;20287;-34